Abis Cuxhaven — PBYB — position and weather

sailwx.info

Track history (hours):
 
Tides and Currents Weather Stations Pressure Air Temp Water Temp Dewpoint Dewpoint Depression Visibility Wind Speed Wind Dir Waves Ship Positions

Abis Cuxhaven

Last reported at 2015-May-29 08:33 UTC. Time now 2015-May-30 14:32 UTC.
Position N 63°35' E 009°25'.

Length 114 m; draft 4.1 m.

Type: Cargo ship. MMSI: 246670000.

Date/timePositionNaut miles runAvg speedWind from/ knotsBaromVisibWave heightAir tempDewpointWater temp
2015-May-29 08:33N 63°35' E 009°25'1010.2
2015-May-29 07:33N 63°40' E 009°46'1211.8
2015-May-29 06:33N 63°29' E 009°56'10 9.9
2015-May-29 05:33N 63°19' E 009°51'0 0.2
2015-May-29 04:31N 63°19' E 009°51'0 0.0
2015-May-29 03:31N 63°19' E 009°51'0 0.0
2015-May-29 02:31N 63°19' E 009°51'0 0.0
2015-May-29 01:31N 63°19' E 009°51'0 0.0
2015-May-29 00:31N 63°19' E 009°51'0 0.0
2015-May-28 23:31N 63°19' E 009°51'0 0.0
2015-May-28 22:31N 63°19' E 009°51'0 0.0
2015-May-28 21:31N 63°19' E 009°51'0 0.0
2015-May-28 20:31N 63°19' E 009°51'0 0.0
2015-May-28 19:31N 63°19' E 009°51'0 0.0
2015-May-28 18:31N 63°19' E 009°51'0 0.0
2015-May-28 17:31N 63°19' E 009°51'0 0.0
2015-May-28 16:31N 63°19' E 009°51'0 0.0
2015-May-28 15:31N 63°19' E 009°51'0 0.0
2015-May-28 14:31N 63°19' E 009°51'0 0.0
2015-May-28 13:31N 63°19' E 009°51'0 0.0
2015-May-28 12:31N 63°19' E 009°51'0 0.0
2015-May-28 11:31N 63°19' E 009°51'0 0.0
2015-May-28 10:31N 63°19' E 009°51'0 0.0
2015-May-28 09:31N 63°19' E 009°51'0 0.0
2015-May-28 08:31N 63°19' E 009°51'0 0.0
2015-May-28 07:31N 63°19' E 009°51'0 0.0
2015-May-28 06:28N 63°19' E 009°51'0 0.0
2015-May-28 05:31N 63°19' E 009°51'0 0.0
2015-May-28 04:31N 63°19' E 009°51'0 0.0
2015-May-28 03:31N 63°19' E 009°51'0 0.0
2015-May-28 02:31N 63°19' E 009°51'0 0.0
2015-May-28 01:31N 63°19' E 009°51'0 0.0
2015-May-28 00:31N 63°19' E 009°51'0 0.0
2015-May-27 23:31N 63°19' E 009°51'0 0.0
2015-May-27 22:31N 63°19' E 009°51'0 0.0
2015-May-27 21:31N 63°19' E 009°51'0 0.0
2015-May-27 20:31N 63°19' E 009°51'0 0.0
2015-May-27 19:31N 63°19' E 009°51'0 0.0
2015-May-27 18:31N 63°19' E 009°51'0 0.0
2015-May-27 17:31N 63°19' E 009°51'0 0.0
2015-May-27 16:31N 63°19' E 009°51'0 0.0
2015-May-27 15:31N 63°19' E 009°51'0 0.0
2015-May-27 14:31N 63°19' E 009°51'0 0.0
2015-May-27 13:07N 63°19' E 009°51'0 0.0
2015-May-27 12:20N 63°19' E 009°51'2 3.0
2015-May-27 11:33N 63°21' E 009°54'1010.4
2015-May-27 10:33N 63°31' E 009°54'1010.0
2015-May-27 09:33N 63°39' E 009°39'1312.5
2015-May-27 08:29N 63°32' E 009°13'62 8.5
2015-May-27 01:13N 63°10' E 007°04'256 7.6
2015-May-25 15:21N 59°04' E 004°30'7 8.5
2015-May-25 14:30N 58°58' E 004°38'10 8.5
2015-May-25 13:21N 58°50' E 004°48'35 9.2
2015-May-25 09:31N 58°21' E 005°25'9 9.2
2015-May-25 08:32N 58°15' E 005°38'9 9.4
2015-May-25 07:33N 58°09' E 005°51'9 9.3
2015-May-25 06:33N 58°02' E 006°04'143 8.3
2015-May-24 13:22N 57°49' E 010°32'7 8.0
2015-May-24 12:30N 57°47' E 010°45'8 8.5
2015-May-24 11:32N 57°39' E 010°39'1 0.4
2015-May-24 09:11N 57°39' E 010°37'710.0
2015-May-24 08:32N 57°37' E 010°49'1010.4
2015-May-24 07:33N 57°33' E 011°06'1010.1
2015-May-24 06:33N 57°29' E 011°23'1010.3
2015-May-24 05:33N 57°20' E 011°31'1010.0
2015-May-24 04:33N 57°10' E 011°38'1010.0
2015-May-24 03:32N 57°01' E 011°44'9 9.7
2015-May-24 02:33N 56°52' E 011°50'10 9.7
2015-May-24 01:33N 56°42' E 011°55'10 9.7
2015-May-24 00:33N 56°33' E 011°59'10 9.8
2015-May-23 23:31N 56°23' E 012°03'9 9.3
2015-May-23 22:33N 56°16' E 012°12'10 9.8
2015-May-23 21:33N 56°10' E 012°27'10 9.8
2015-May-23 20:33N 56°03' E 012°39'10 9.8
2015-May-23 19:33N 55°54' E 012°39'1110.5
2015-May-23 18:33N 55°43' E 012°41'1010.2
2015-May-23 17:33N 55°33' E 012°43'1010.4
2015-May-23 16:33N 55°22' E 012°42'9 8.9
2015-May-23 15:33N 55°16' E 012°52'1110.5
2015-May-23 14:33N 55°15' E 013°11'3110.1
2015-May-23 11:31N 55°13' E 014°04'9 9.2
2015-May-23 10:33N 55°15' E 014°20'1010.0
2015-May-23 09:32N 55°23' E 014°30'1010.1
2015-May-23 08:33N 55°28' E 014°45'1010.0
2015-May-23 07:33N 55°33' E 015°01'1010.1
2015-May-23 06:33N 55°38' E 015°17'1110.4
2015-May-23 05:30N 55°43' E 015°33'1410.8
2015-May-23 04:14N 55°51' E 015°54'27810.0
2015-May-22 00:26N 59°13' E 021°47'4910.0
2015-May-21 19:28N 59°22' E 023°22'1110.0
2015-May-21 18:25N 59°23' E 023°43'10 0.3
2015-May-20 12:19N 59°21' E 024°03'0 0.0
2015-May-20 11:19N 59°21' E 024°03'  
Track history (hours):
 
Tides and Currents Weather Stations Pressure Air Temp Water Temp Dewpoint Dewpoint Depression Visibility Wind Speed Wind Dir Waves Ship Positions

Abis Cuxhaven

Last reported at 2015-May-29 08:33 UTC. Time now 2015-May-30 14:32 UTC.
Position N 63°35' E 009°25'.

Length 114 m; draft 4.1 m.

Type: Cargo ship. MMSI: 246670000.

Date/timePositionNaut miles runAvg speedWind from/ knotsBaromVisibWave heightAir tempDewpointWater temp
2015-May-29 08:33N 63°35' E 009°25'1010.2
2015-May-29 07:33N 63°40' E 009°46'1211.8
2015-May-29 06:33N 63°29' E 009°56'10 9.9
2015-May-29 05:33N 63°19' E 009°51'0 0.2
2015-May-29 04:31N 63°19' E 009°51'0 0.0
2015-May-29 03:31N 63°19' E 009°51'0 0.0
2015-May-29 02:31N 63°19' E 009°51'0 0.0
2015-May-29 01:31N 63°19' E 009°51'0 0.0
2015-May-29 00:31N 63°19' E 009°51'0 0.0
2015-May-28 23:31N 63°19' E 009°51'0 0.0
2015-May-28 22:31N 63°19' E 009°51'0 0.0
2015-May-28 21:31N 63°19' E 009°51'0 0.0
2015-May-28 20:31N 63°19' E 009°51'0 0.0
2015-May-28 19:31N 63°19' E 009°51'0 0.0
2015-May-28 18:31N 63°19' E 009°51'0 0.0
2015-May-28 17:31N 63°19' E 009°51'0 0.0
2015-May-28 16:31N 63°19' E 009°51'0 0.0
2015-May-28 15:31N 63°19' E 009°51'0 0.0
2015-May-28 14:31N 63°19' E 009°51'0 0.0
2015-May-28 13:31N 63°19' E 009°51'0 0.0
2015-May-28 12:31N 63°19' E 009°51'0 0.0
2015-May-28 11:31N 63°19' E 009°51'0 0.0
2015-May-28 10:31N 63°19' E 009°51'0 0.0
2015-May-28 09:31N 63°19' E 009°51'0 0.0
2015-May-28 08:31N 63°19' E 009°51'0 0.0
2015-May-28 07:31N 63°19' E 009°51'0 0.0
2015-May-28 06:28N 63°19' E 009°51'0 0.0
2015-May-28 05:31N 63°19' E 009°51'0 0.0
2015-May-28 04:31N 63°19' E 009°51'0 0.0
2015-May-28 03:31N 63°19' E 009°51'0 0.0
2015-May-28 02:31N 63°19' E 009°51'0 0.0
2015-May-28 01:31N 63°19' E 009°51'0 0.0
2015-May-28 00:31N 63°19' E 009°51'0 0.0
2015-May-27 23:31N 63°19' E 009°51'0 0.0
2015-May-27 22:31N 63°19' E 009°51'0 0.0
2015-May-27 21:31N 63°19' E 009°51'0 0.0
2015-May-27 20:31N 63°19' E 009°51'0 0.0
2015-May-27 19:31N 63°19' E 009°51'0 0.0
2015-May-27 18:31N 63°19' E 009°51'0 0.0
2015-May-27 17:31N 63°19' E 009°51'0 0.0
2015-May-27 16:31N 63°19' E 009°51'0 0.0
2015-May-27 15:31N 63°19' E 009°51'0 0.0
2015-May-27 14:31N 63°19' E 009°51'0 0.0
2015-May-27 13:07N 63°19' E 009°51'0 0.0
2015-May-27 12:20N 63°19' E 009°51'2 3.0
2015-May-27 11:33N 63°21' E 009°54'1010.4
2015-May-27 10:33N 63°31' E 009°54'1010.0
2015-May-27 09:33N 63°39' E 009°39'1312.5
2015-May-27 08:29N 63°32' E 009°13'62 8.5
2015-May-27 01:13N 63°10' E 007°04'256 7.6
2015-May-25 15:21N 59°04' E 004°30'7 8.5
2015-May-25 14:30N 58°58' E 004°38'10 8.5
2015-May-25 13:21N 58°50' E 004°48'35 9.2
2015-May-25 09:31N 58°21' E 005°25'9 9.2
2015-May-25 08:32N 58°15' E 005°38'9 9.4
2015-May-25 07:33N 58°09' E 005°51'9 9.3
2015-May-25 06:33N 58°02' E 006°04'143 8.3
2015-May-24 13:22N 57°49' E 010°32'7 8.0
2015-May-24 12:30N 57°47' E 010°45'8 8.5
2015-May-24 11:32N 57°39' E 010°39'1 0.4
2015-May-24 09:11N 57°39' E 010°37'710.0
2015-May-24 08:32N 57°37' E 010°49'1010.4
2015-May-24 07:33N 57°33' E 011°06'1010.1
2015-May-24 06:33N 57°29' E 011°23'1010.3
2015-May-24 05:33N 57°20' E 011°31'1010.0
2015-May-24 04:33N 57°10' E 011°38'1010.0
2015-May-24 03:32N 57°01' E 011°44'9 9.7
2015-May-24 02:33N 56°52' E 011°50'10 9.7
2015-May-24 01:33N 56°42' E 011°55'10 9.7
2015-May-24 00:33N 56°33' E 011°59'10 9.8
2015-May-23 23:31N 56°23' E 012°03'9 9.3
2015-May-23 22:33N 56°16' E 012°12'10 9.8
2015-May-23 21:33N 56°10' E 012°27'10 9.8
2015-May-23 20:33N 56°03' E 012°39'10 9.8
2015-May-23 19:33N 55°54' E 012°39'1110.5
2015-May-23 18:33N 55°43' E 012°41'1010.2
2015-May-23 17:33N 55°33' E 012°43'1010.4
2015-May-23 16:33N 55°22' E 012°42'9 8.9
2015-May-23 15:33N 55°16' E 012°52'1110.5
2015-May-23 14:33N 55°15' E 013°11'3110.1
2015-May-23 11:31N 55°13' E 014°04'9 9.2
2015-May-23 10:33N 55°15' E 014°20'1010.0
2015-May-23 09:32N 55°23' E 014°30'1010.1
2015-May-23 08:33N 55°28' E 014°45'1010.0
2015-May-23 07:33N 55°33' E 015°01'1010.1
2015-May-23 06:33N 55°38' E 015°17'1110.4
2015-May-23 05:30N 55°43' E 015°33'1410.8
2015-May-23 04:14N 55°51' E 015°54'27810.0
2015-May-22 00:26N 59°13' E 021°47'4910.0
2015-May-21 19:28N 59°22' E 023°22'1110.0
2015-May-21 18:25N 59°23' E 023°43'10 0.3
2015-May-20 12:19N 59°21' E 024°03'0 0.0
2015-May-20 11:19N 59°21' E 024°03'  

Dump ship's entire track history